Time;durP1;ratioP1;P1;durP2;ratioP2;P2;SDS_P1;SDS_P2;PMS_P1;PMS_P2;Temp;Humidity;BMP_temperature;BMP_pressure;BME280_temperature;BME280_humidity;BME280_pressure;Samples;Min_cycle;Max_cycle;Signal;HPM_P1;HPM_P2
2022/05/22 00:00:17;;;;;;;;;;;19.60;63.10;;;;;;5074679;28;1286;-75
2022/05/22 00:02:42;;;;;;;;;;;19.60;63.10;;;;;;5075020;28;1228;-73
2022/05/22 00:05:09;;;;;;;;;;;19.60;63.00;;;;;;5056903;28;1969;-73
2022/05/22 00:07:34;;;;;;;;;;;19.60;63.10;;;;;;5043802;28;1506;-74
2022/05/22 00:10:01;;;;;;;;;;;19.60;63.00;;;;;;5074484;28;1071;-74
2022/05/22 00:12:26;;;;;;;;;;;19.60;63.00;;;;;;5043476;28;1235;-74
2022/05/22 00:14:52;;;;;;;;;;;19.60;63.10;;;;;;5056612;28;1298;-74
2022/05/22 00:17:17;;;;;;;;;;;19.60;63.10;;;;;;5056211;28;1067;-75
2022/05/22 00:19:42;;;;;;;;;;;19.60;63.10;;;;;;5079540;28;1209;-74
2022/05/22 00:22:08;;;;;;;;;;;19.60;63.10;;;;;;5053016;28;1384;-74
2022/05/22 00:24:33;;;;;;;;;;;19.60;63.10;;;;;;5053040;28;1886;-74
2022/05/22 00:27:00;;;;;;;;;;;19.60;63.10;;;;;;5055779;28;1372;-74
2022/05/22 00:29:26;;;;;;;;;;;19.60;63.10;;;;;;5065873;28;1343;-74
2022/05/22 00:31:51;;;;;;;;;;;19.60;63.10;;;;;;5073331;28;1364;-74
2022/05/22 00:34:17;;;;;;;;;;;19.60;63.10;;;;;;5056143;28;1151;-74
2022/05/22 00:36:42;;;;;;;;;;;19.60;63.10;;;;;;5074121;28;1352;-74
2022/05/22 00:39:08;;;;;;;;;;;19.60;63.10;;;;;;5052861;28;1114;-76
2022/05/22 00:41:33;;;;;;;;;;;19.60;63.10;;;;;;5055818;28;1331;-76
2022/05/22 00:43:58;;;;;;;;;;;19.60;63.10;;;;;;5055938;28;1894;-76
2022/05/22 00:46:24;;;;;;;;;;;19.60;63.10;;;;;;5055833;28;1468;-75
2022/05/22 00:48:53;;;;;;;;;;;19.60;63.10;;;;;;5056095;28;1210;-75
2022/05/22 00:51:24;;;;;;;;;;;19.60;63.10;;;;;;5055326;28;1358;-75
2022/05/22 00:53:50;;;;;;;;;;;19.60;63.10;;;;;;5054287;23;3838;-67
2022/05/22 00:56:17;;;;;;;;;;;19.60;63.20;;;;;;5043073;28;1181;-67
2022/05/22 00:58:43;;;;;;;;;;;19.60;63.10;;;;;;5052285;28;1357;-68
2022/05/22 01:01:08;;;;;;;;;;;19.60;63.10;;;;;;5068707;28;1331;-68
2022/05/22 01:03:36;;;;;;;;;;;19.60;63.20;;;;;;5068795;28;1925;-67
2022/05/22 01:06:10;;;;;;;;;;;19.60;63.20;;;;;;5053628;28;1270;-67
2022/05/22 01:08:37;;;;;;;;;;;19.60;63.20;;;;;;5049523;28;1376;-68
2022/05/22 01:11:03;;;;;;;;;;;19.60;63.20;;;;;;5032188;28;1295;-68
2022/05/22 01:13:33;;;;;;;;;;;19.60;63.20;;;;;;5031941;28;1302;-68
2022/05/22 01:16:01;;;;;;;;;;;19.60;63.20;;;;;;5033556;28;1447;-68
2022/05/22 01:18:27;;;;;;;;;;;19.60;63.20;;;;;;5032134;28;1302;-67
2022/05/22 01:20:52;;;;;;;;;;;19.60;63.20;;;;;;5032041;28;1344;-67
2022/05/22 01:23:18;;;;;;;;;;;19.60;63.20;;;;;;5032126;28;1890;-67
2022/05/22 01:25:44;;;;;;;;;;;19.60;63.20;;;;;;5032194;28;1294;-66
2022/05/22 01:28:09;;;;;;;;;;;19.60;63.20;;;;;;5032246;28;1312;-67
2022/05/22 01:30:35;;;;;;;;;;;19.60;63.20;;;;;;5043637;28;1364;-67
2022/05/22 01:33:00;;;;;;;;;;;19.60;63.20;;;;;;5049531;28;1331;-67
2022/05/22 01:35:26;;;;;;;;;;;19.60;63.20;;;;;;5033241;28;1325;-67
2022/05/22 01:37:52;;;;;;;;;;;19.60;63.20;;;;;;5031952;28;1593;-67
2022/05/22 01:40:18;;;;;;;;;;;19.60;63.20;;;;;;5033153;28;1264;-67
2022/05/22 01:42:44;;;;;;;;;;;19.60;63.20;;;;;;5014976;28;1376;-67
2022/05/22 01:45:10;;;;;;;;;;;19.60;63.30;;;;;;5031848;28;1902;-67
2022/05/22 01:47:36;;;;;;;;;;;19.60;63.20;;;;;;5031933;28;1266;-70
2022/05/22 01:50:01;;;;;;;;;;;19.60;63.20;;;;;;5031530;28;1351;-69
2022/05/22 01:52:26;;;;;;;;;;;19.60;63.20;;;;;;5031607;28;1327;-69
2022/05/22 01:54:52;;;;;;;;;;;19.60;63.20;;;;;;5031852;28;1298;-69
2022/05/22 01:57:18;;;;;;;;;;;19.60;63.20;;;;;;5032830;28;1293;-67
2022/05/22 01:59:43;;;;;;;;;;;19.60;63.20;;;;;;5032739;28;1263;-68
2022/05/22 02:02:09;;;;;;;;;;;19.60;63.30;;;;;;5032537;28;1395;-69
2022/05/22 02:04:34;;;;;;;;;;;19.60;63.30;;;;;;5032793;28;1957;-69
2022/05/22 02:09:44;;;;;;;;;;;19.60;63.30;;;;;;5040146;28;1325;-69
2022/05/22 02:12:09;;;;;;;;;;;19.60;63.30;;;;;;5032570;28;1365;-69
2022/05/22 02:14:34;;;;;;;;;;;19.60;63.30;;;;;;5032657;28;1306;-68
2022/05/22 02:17:00;;;;;;;;;;;19.60;63.30;;;;;;5031260;28;1331;-69
2022/05/22 02:19:25;;;;;;;;;;;19.60;63.30;;;;;;5044507;28;1139;-69
2022/05/22 02:21:51;;;;;;;;;;;19.60;63.30;;;;;;5052359;28;1397;-69
2022/05/22 02:24:16;;;;;;;;;;;19.60;63.30;;;;;;5034565;28;1886;-69
2022/05/22 02:26:42;;;;;;;;;;;19.60;63.30;;;;;;5026298;28;1264;-69
2022/05/22 02:29:07;;;;;;;;;;;19.60;64.30;;;;;;5024555;28;1228;-69
2022/05/22 02:31:34;;;;;;;;;;;19.60;63.40;;;;;;5045208;28;1996;-69
2022/05/22 02:33:59;;;;;;;;;;;19.60;63.40;;;;;;5032569;28;1333;-69
2022/05/22 02:36:25;;;;;;;;;;;19.60;63.40;;;;;;5037643;28;1191;-69
2022/05/22 02:38:50;;;;;;;;;;;19.60;63.30;;;;;;5052239;28;1110;-69
2022/05/22 02:41:16;;;;;;;;;;;19.60;63.40;;;;;;5052177;28;1333;-69
2022/05/22 02:43:41;;;;;;;;;;;19.60;63.40;;;;;;5051222;28;1910;-69
2022/05/22 02:46:08;;;;;;;;;;;19.60;63.40;;;;;;5051157;28;1201;-69
2022/05/22 02:48:33;;;;;;;;;;;19.60;63.40;;;;;;5052398;28;1072;-68
2022/05/22 02:50:59;;;;;;;;;;;19.60;63.40;;;;;;5040236;28;2065;-68
2022/05/22 02:53:24;;;;;;;;;;;19.60;63.40;;;;;;5032746;28;1335;-66
2022/05/22 02:55:49;;;;;;;;;;;19.60;63.40;;;;;;5047533;28;1275;-69
2022/05/22 02:58:15;;;;;;;;;;;19.60;63.40;;;;;;5033809;28;1127;-69
2022/05/22 03:00:40;;;;;;;;;;;19.60;63.40;;;;;;5027994;28;2055;-69
2022/05/22 03:03:06;;;;;;;;;;;19.60;63.40;;;;;;5034999;28;2009;-69
2022/05/22 03:06:38;;;;;;;;;;;19.60;63.40;;;;;;5031109;28;1999;-69
2022/05/22 03:08:16;;;;;;;;;;;19.60;63.40;;;;;;5043594;28;1389;-69
2022/05/22 03:10:44;;;;;;;;;;;19.60;63.40;;;;;;5031179;28;1434;-69
2022/05/22 03:13:10;;;;;;;;;;;19.60;63.40;;;;;;5014687;28;1315;-69
2022/05/22 03:15:35;;;;;;;;;;;19.60;63.40;;;;;;5035592;28;1351;-69
2022/05/22 03:18:01;;;;;;;;;;;19.60;63.40;;;;;;5035678;28;1295;-69
2022/05/22 03:20:26;;;;;;;;;;;19.60;63.40;;;;;;5054468;28;1174;-69
2022/05/22 03:22:52;;;;;;;;;;;19.60;63.40;;;;;;5055443;28;1365;-69
2022/05/22 03:25:17;;;;;;;;;;;19.60;63.40;;;;;;5055758;28;1894;-69
2022/05/22 03:27:43;;;;;;;;;;;19.60;63.40;;;;;;5054161;28;1114;-69
2022/05/22 03:30:08;;;;;;;;;;;19.60;63.40;;;;;;5044113;28;1195;-69
2022/05/22 03:32:34;;;;;;;;;;;19.60;63.40;;;;;;5055652;28;1755;-69
2022/05/22 03:35:00;;;;;;;;;;;19.60;63.40;;;;;;5035140;28;1119;-69
2022/05/22 03:37:25;;;;;;;;;;;19.60;63.40;;;;;;5034147;28;1366;-69
2022/05/22 03:39:54;;;;;;;;;;;19.60;63.40;;;;;;5033889;28;1208;-69
2022/05/22 03:42:19;;;;;;;;;;;19.60;63.40;;;;;;5034084;28;1349;-69
2022/05/22 03:44:44;;;;;;;;;;;19.60;63.40;;;;;;5033955;28;1909;-69
2022/05/22 03:47:10;;;;;;;;;;;19.60;63.40;;;;;;5018042;28;1299;-69
2022/05/22 03:49:35;;;;;;;;;;;19.60;63.40;;;;;;5034883;28;1312;-69
2022/05/22 03:52:01;;;;;;;;;;;19.60;63.40;;;;;;5034100;28;1116;-69
2022/05/22 03:54:26;;;;;;;;;;;19.60;63.40;;;;;;5034844;28;1397;-69
2022/05/22 03:56:53;;;;;;;;;;;19.60;63.50;;;;;;5034008;28;1068;-69
2022/05/22 03:59:18;;;;;;;;;;;19.60;63.40;;;;;;5035272;28;1109;-69
2022/05/22 04:01:44;;;;;;;;;;;19.60;63.50;;;;;;5034724;28;1291;-69
2022/05/22 04:04:09;;;;;;;;;;;19.60;63.40;;;;;;5034518;28;1965;-69
2022/05/22 04:06:34;;;;;;;;;;;19.60;63.50;;;;;;5034750;28;1333;-69
2022/05/22 04:09:00;;;;;;;;;;;19.60;63.50;;;;;;5034707;28;1677;-69
2022/05/22 04:11:25;;;;;;;;;;;19.60;63.50;;;;;;5034430;28;1343;-69
2022/05/22 04:13:51;;;;;;;;;;;19.60;63.50;;;;;;5034468;28;1259;-69
2022/05/22 04:16:16;;;;;;;;;;;19.60;63.50;;;;;;5034785;28;1279;-69
2022/05/22 04:18:41;;;;;;;;;;;19.60;63.50;;;;;;5039058;28;1369;-69
2022/05/22 04:21:07;;;;;;;;;;;19.60;63.50;;;;;;5054041;28;1322;-69
2022/05/22 04:26:17;;;;;;;;;;;19.60;63.50;;;;;;5053266;28;1167;-69
2022/05/22 04:28:42;;;;;;;;;;;19.60;63.50;;;;;;5050810;28;1060;-69
2022/05/22 04:31:08;;;;;;;;;;;19.60;63.50;;;;;;5047774;28;1291;-69
2022/05/22 04:33:33;;;;;;;;;;;19.60;63.50;;;;;;5044825;28;1230;-69
2022/05/22 04:35:59;;;;;;;;;;;19.60;63.50;;;;;;5049701;28;1241;-69
2022/05/22 04:38:24;;;;;;;;;;;19.60;63.50;;;;;;5033111;28;1285;-69
2022/05/22 04:40:53;;;;;;;;;;;19.60;63.50;;;;;;5033922;28;1462;-69
2022/05/22 04:43:18;;;;;;;;;;;19.60;63.50;;;;;;5033919;28;1898;-69
2022/05/22 04:45:44;;;;;;;;;;;19.60;63.50;;;;;;5032998;28;1048;-69
2022/05/22 04:48:09;;;;;;;;;;;19.60;63.50;;;;;;5033786;28;1119;-69
2022/05/22 04:50:35;;;;;;;;;;;19.60;63.50;;;;;;5033743;28;1044;-69
2022/05/22 04:53:00;;;;;;;;;;;19.60;63.50;;;;;;5033730;28;1369;-69
2022/05/22 04:55:26;;;;;;;;;;;19.60;63.50;;;;;;5033977;28;1158;-69
2022/05/22 04:57:51;;;;;;;;;;;19.60;63.50;;;;;;5032531;28;1346;-69
2022/05/22 05:00:17;;;;;;;;;;;19.60;63.50;;;;;;5032451;28;1298;-69
2022/05/22 05:02:42;;;;;;;;;;;19.60;63.50;;;;;;5032126;28;1320;-68
2022/05/22 05:05:11;;;;;;;;;;;19.60;63.60;;;;;;5033616;28;1973;-68
2022/05/22 05:07:37;;;;;;;;;;;19.60;63.60;;;;;;5039742;28;1271;-70
2022/05/22 05:10:02;;;;;;;;;;;19.60;63.50;;;;;;5039080;28;1161;-69
2022/05/22 05:12:28;;;;;;;;;;;19.60;63.60;;;;;;5032580;28;1326;-68
2022/05/22 05:14:53;;;;;;;;;;;19.60;63.60;;;;;;5033630;28;1072;-68
2022/05/22 05:17:19;;;;;;;;;;;19.60;63.50;;;;;;5033365;28;1350;-67
2022/05/22 05:19:44;;;;;;;;;;;19.60;63.60;;;;;;5031970;28;1202;-68
2022/05/22 05:22:10;;;;;;;;;;;19.60;63.60;;;;;;5015592;28;1285;-68
2022/05/22 05:24:35;;;;;;;;;;;19.60;63.60;;;;;;5032057;28;1957;-68
2022/05/22 05:27:01;;;;;;;;;;;19.60;63.60;;;;;;5033272;28;1345;-68
2022/05/22 05:29:26;;;;;;;;;;;19.60;63.60;;;;;;5031878;28;1096;-68
2022/05/22 05:31:52;;;;;;;;;;;19.60;63.60;;;;;;5051588;28;1361;-68
2022/05/22 05:34:17;;;;;;;;;;;19.60;63.60;;;;;;5023344;28;2240;-65
2022/05/22 05:36:42;;;;;;;;;;;19.60;63.60;;;;;;5032826;28;1250;-67
2022/05/22 05:39:08;;;;;;;;;;;19.60;63.60;;;;;;5038477;28;1802;-67
2022/05/22 05:41:35;;;;;;;;;;;19.60;63.60;;;;;;5052063;28;1272;-68
2022/05/22 05:44:05;;;;;;;;;;;19.60;63.60;;;;;;5050303;28;1897;-66
2022/05/22 05:46:37;;;;;;;;;;;19.60;63.60;;;;;;5032269;28;1052;-65
2022/05/22 05:49:03;;;;;;;;;;;19.60;63.60;;;;;;5032368;28;1104;-67
2022/05/22 05:51:28;;;;;;;;;;;19.60;63.60;;;;;;5043559;28;1055;-67
2022/05/22 05:53:54;;;;;;;;;;;19.60;63.60;;;;;;5033395;28;1333;-68
2022/05/22 05:56:19;;;;;;;;;;;19.60;63.60;;;;;;5050584;28;1004;-67
2022/05/22 05:58:45;;;;;;;;;;;19.60;63.60;;;;;;5037148;28;996;-69
2022/05/22 06:01:10;;;;;;;;;;;19.60;63.60;;;;;;5031735;28;1049;-67
2022/05/22 06:03:36;;;;;;;;;;;19.60;63.60;;;;;;5031165;28;2339;-66
2022/05/22 06:06:01;;;;;;;;;;;19.60;63.60;;;;;;5032177;28;1111;-67
2022/05/22 06:08:27;;;;;;;;;;;19.60;63.60;;;;;;5044440;28;1281;-68
2022/05/22 06:10:53;;;;;;;;;;;19.60;63.60;;;;;;5038272;28;1262;-68
2022/05/22 06:13:18;;;;;;;;;;;19.60;63.60;;;;;;5049975;28;1264;-67
2022/05/22 06:15:44;;;;;;;;;;;19.60;63.60;;;;;;5031786;28;989;-69
2022/05/22 06:18:09;;;;;;;;;;;19.60;63.60;;;;;;5027812;28;1075;-69
2022/05/22 06:20:34;;;;;;;;;;;19.60;63.70;;;;;;5042069;28;1067;-66
2022/05/22 06:23:00;;;;;;;;;;;19.60;63.60;;;;;;5033067;28;1252;-65
2022/05/22 06:25:25;;;;;;;;;;;19.60;63.60;;;;;;5043605;28;1984;-68
2022/05/22 06:27:51;;;;;;;;;;;19.60;63.70;;;;;;5031530;28;1159;-67
2022/05/22 06:30:18;;;;;;;;;;;19.60;63.70;;;;;;5033717;28;1158;-67
2022/05/22 06:32:44;;;;;;;;;;;19.60;63.60;;;;;;5031124;28;1250;-68
2022/05/22 06:35:09;;;;;;;;;;;19.60;63.70;;;;;;5047268;28;1262;-66
2022/05/22 06:37:35;;;;;;;;;;;19.60;64.40;;;;;;5029953;28;1373;-65
2022/05/22 06:40:00;;;;;;;;;;;19.60;63.70;;;;;;5030168;28;1373;-66
2022/05/22 06:42:27;;;;;;;;;;;19.60;63.70;;;;;;5031120;28;1347;-66
2022/05/22 06:44:58;;;;;;;;;;;19.60;63.70;;;;;;5030203;28;1898;-67
2022/05/22 06:47:25;;;;;;;;;;;19.60;63.70;;;;;;5030478;28;1334;-66
2022/05/22 06:49:51;;;;;;;;;;;19.60;63.70;;;;;;5033774;28;1284;-67
2022/05/22 06:52:16;;;;;;;;;;;19.60;63.70;;;;;;5034052;28;1381;-68
2022/05/22 06:54:42;;;;;;;;;;;19.60;63.70;;;;;;5080716;22;2209;-73
2022/05/22 06:57:07;;;;;;;;;;;19.60;63.70;;;;;;5064850;28;1085;-73
2022/05/22 06:59:32;;;;;;;;;;;19.60;63.70;;;;;;5075597;28;1118;-73
2022/05/22 07:02:00;;;;;;;;;;;19.60;63.70;;;;;;5074476;28;1167;-73
2022/05/22 07:04:26;;;;;;;;;;;19.60;63.70;;;;;;5075674;28;1977;-74
2022/05/22 07:06:51;;;;;;;;;;;19.60;63.70;;;;;;5073614;28;1338;-74
2022/05/22 07:09:16;;;;;;;;;;;19.60;63.70;;;;;;5046300;28;1416;-74
2022/05/22 07:11:42;;;;;;;;;;;19.60;63.70;;;;;;5057318;28;1363;-72
2022/05/22 07:14:08;;;;;;;;;;;19.60;63.70;;;;;;5074419;28;1379;-72
2022/05/22 07:16:37;;;;;;;;;;;19.60;63.70;;;;;;5074464;28;1294;-72
2022/05/22 07:19:03;;;;;;;;;;;19.60;64.50;;;;;;5074315;28;1023;-72
2022/05/22 07:21:28;;;;;;;;;;;19.60;63.70;;;;;;5075701;28;1328;-72
2022/05/22 07:23:53;;;;;;;;;;;19.60;63.70;;;;;;5075340;28;1964;-72
2022/05/22 07:26:21;;;;;;;;;;;19.60;63.80;;;;;;5074118;28;1282;-72
2022/05/22 07:28:46;;;;;;;;;;;19.60;63.70;;;;;;5075296;28;1253;-72
2022/05/22 07:31:15;;;;;;;;;;;19.60;63.70;;;;;;5075178;28;1261;-71
2022/05/22 07:33:40;;;;;;;;;;;19.60;63.70;;;;;;5057214;28;1385;-72
2022/05/22 07:36:06;;;;;;;;;;;19.60;63.80;;;;;;5055881;28;1132;-72
2022/05/22 07:38:31;;;;;;;;;;;19.60;63.70;;;;;;5074058;28;1270;-72
2022/05/22 07:40:57;;;;;;;;;;;19.60;63.80;;;;;;5074727;28;1253;-72
2022/05/22 07:43:22;;;;;;;;;;;19.60;63.70;;;;;;5075157;28;1972;-72
2022/05/22 07:45:47;;;;;;;;;;;19.60;63.80;;;;;;5075116;28;1285;-72
2022/05/22 07:48:13;;;;;;;;;;;19.60;63.80;;;;;;5075167;28;1125;-71
2022/05/22 07:50:39;;;;;;;;;;;19.60;63.80;;;;;;5074746;28;1306;-71
2022/05/22 07:53:05;;;;;;;;;;;19.60;63.80;;;;;;5075300;28;1359;-71
2022/05/22 07:55:30;;;;;;;;;;;19.60;63.80;;;;;;5074395;28;1278;-70
2022/05/22 07:57:56;;;;;;;;;;;19.60;63.80;;;;;;5073755;28;1264;-70
2022/05/22 08:00:21;;;;;;;;;;;19.60;63.80;;;;;;5073068;28;1213;-71
2022/05/22 08:02:47;;;;;;;;;;;19.60;63.80;;;;;;5073566;28;1425;-71
2022/05/22 08:05:13;;;;;;;;;;;19.60;63.80;;;;;;5072476;28;1930;-72
2022/05/22 08:07:38;;;;;;;;;;;19.60;63.80;;;;;;5065413;28;1283;-72
2022/05/22 08:10:04;;;;;;;;;;;19.60;63.80;;;;;;5061226;28;1114;-72
2022/05/22 08:12:29;;;;;;;;;;;19.60;63.90;;;;;;5073383;28;1152;-72
2022/05/22 08:14:55;;;;;;;;;;;19.60;63.80;;;;;;5073220;28;1295;-72
2022/05/22 08:17:21;;;;;;;;;;;19.60;63.80;;;;;;5074706;28;1280;-72
2022/05/22 08:19:49;;;;;;;;;;;19.60;63.80;;;;;;5074207;28;1141;-72
2022/05/22 08:22:16;;;;;;;;;;;19.60;63.80;;;;;;5073315;28;1283;-71
2022/05/22 08:24:41;;;;;;;;;;;19.60;63.80;;;;;;5072728;28;1965;-73
2022/05/22 08:27:07;;;;;;;;;;;19.60;63.80;;;;;;5073171;28;1332;-72
2022/05/22 08:29:32;;;;;;;;;;;19.60;63.80;;;;;;5071755;28;1320;-72
2022/05/22 08:31:58;;;;;;;;;;;19.60;63.90;;;;;;5060824;28;1082;-72
2022/05/22 08:34:23;;;;;;;;;;;19.60;63.80;;;;;;5072767;28;1303;-72
2022/05/22 08:36:51;;;;;;;;;;;19.60;63.80;;;;;;5074229;28;1098;-72
2022/05/22 08:39:19;;;;;;;;;;;19.60;63.80;;;;;;5070902;28;1320;-72
2022/05/22 08:41:48;;;;;;;;;;;19.60;63.90;;;;;;5073799;28;1086;-73
2022/05/22 08:44:30;;;;;;;;;;;19.60;63.80;;;;;;5072380;28;1898;-72
2022/05/22 08:47:01;;;;;;;;;;;19.60;63.90;;;;;;5072827;28;1335;-72
2022/05/22 08:49:45;;;;;;;;;;;19.60;63.90;;;;;;5072454;28;1316;-72
2022/05/22 08:52:12;;;;;;;;;;;19.60;63.90;;;;;;5072421;28;1679;-72
2022/05/22 08:54:40;;;;;;;;;;;19.60;63.90;;;;;;5072334;28;1224;-72
2022/05/22 09:00:07;;;;;;;;;;;19.60;63.90;;;;;;5072050;28;1273;-72
2022/05/22 09:02:33;;;;;;;;;;;19.60;63.90;;;;;;5073897;28;1293;-72
2022/05/22 09:05:01;;;;;;;;;;;19.60;64.70;;;;;;5073357;28;1964;-73
2022/05/22 09:07:29;;;;;;;;;;;19.60;63.90;;;;;;5072330;28;1741;-72
2022/05/22 09:09:57;;;;;;;;;;;19.60;63.90;;;;;;5071922;28;1352;-72
2022/05/22 09:12:25;;;;;;;;;;;19.60;63.90;;;;;;5071888;28;1418;-73
2022/05/22 09:14:58;;;;;;;;;;;19.60;63.90;;;;;;5071750;28;1292;-73
2022/05/22 09:17:24;;;;;;;;;;;19.60;63.90;;;;;;5072283;28;1126;-73
2022/05/22 09:20:13;;;;;;;;;;;19.60;63.90;;;;;;5071760;28;1157;-73
2022/05/22 09:22:38;;;;;;;;;;;19.60;63.90;;;;;;5072279;28;1359;-72
2022/05/22 09:25:08;;;;;;;;;;;19.60;63.90;;;;;;5073477;28;1901;-72
2022/05/22 09:27:33;;;;;;;;;;;19.50;63.90;;;;;;5073302;28;1256;-73
2022/05/22 09:30:02;;;;;;;;;;;19.60;64.00;;;;;;5072827;28;1318;-73
2022/05/22 09:32:33;;;;;;;;;;;19.60;64.00;;;;;;5073218;28;1269;-74
2022/05/22 09:35:12;;;;;;;;;;;19.60;63.90;;;;;;5071579;28;1828;-74
2022/05/22 09:37:40;;;;;;;;;;;19.50;63.90;;;;;;5071602;28;1272;-74
2022/05/22 09:40:17;;;;;;;;;;;19.60;63.90;;;;;;5071694;28;1225;-74
2022/05/22 09:43:03;;;;;;;;;;;19.60;63.90;;;;;;5071974;28;1097;-73
2022/05/22 09:45:34;;;;;;;;;;;19.60;64.00;;;;;;5051542;28;1958;-74
2022/05/22 09:48:02;;;;;;;;;;;19.60;64.00;;;;;;5072948;28;1356;-73
2022/05/22 09:50:29;;;;;;;;;;;19.50;63.90;;;;;;5071418;28;1395;-74
2022/05/22 09:53:13;;;;;;;;;;;19.60;64.00;;;;;;5054896;28;1201;-73
2022/05/22 09:55:42;;;;;;;;;;;19.60;64.00;;;;;;5073039;28;1292;-74
2022/05/22 09:58:14;;;;;;;;;;;19.60;64.00;;;;;;5071821;28;1337;-73
2022/05/22 10:00:59;;;;;;;;;;;19.60;64.00;;;;;;5072290;28;1011;-74
2022/05/22 10:03:29;;;;;;;;;;;19.60;64.00;;;;;;5071548;28;1914;-74
2022/05/22 10:05:54;;;;;;;;;;;19.50;64.00;;;;;;5071505;28;1367;-73
2022/05/22 10:08:30;;;;;;;;;;;19.60;64.00;;;;;;5071290;28;1582;-73
2022/05/22 10:10:59;;;;;;;;;;;19.60;64.00;;;;;;5070954;28;1426;-73
2022/05/22 10:13:43;;;;;;;;;;;19.60;64.00;;;;;;5068099;28;1447;-74
2022/05/22 10:16:35;;;;;;;;;;;19.60;64.00;;;;;;5072369;28;1271;-73
2022/05/22 10:19:00;;;;;;;;;;;19.60;64.00;;;;;;5048829;28;1920;-73
2022/05/22 10:21:32;;;;;;;;;;;19.60;64.00;;;;;;5065494;28;1087;-73
2022/05/22 10:24:00;;;;;;;;;;;19.60;64.00;;;;;;5074194;28;1906;-73
2022/05/22 10:26:35;;;;;;;;;;;19.60;64.10;;;;;;5073768;28;1765;-73
2022/05/22 10:29:10;;;;;;;;;;;19.60;64.00;;;;;;5069423;28;1221;-74
2022/05/22 10:31:38;;;;;;;;;;;19.50;64.00;;;;;;5075218;28;1136;-73
2022/05/22 10:34:06;;;;;;;;;;;19.60;64.00;;;;;;5076800;28;1377;-74
2022/05/22 10:36:36;;;;;;;;;;;19.50;64.00;;;;;;5075145;28;1133;-74
2022/05/22 10:39:04;;;;;;;;;;;19.60;64.10;;;;;;5075406;28;1038;-73
2022/05/22 10:44:18;;;;;;;;;;;19.50;64.00;;;;;;5074800;28;1905;-73
2022/05/22 10:46:49;;;;;;;;;;;19.60;64.00;;;;;;5074943;28;1104;-74
2022/05/22 10:49:15;;;;;;;;;;;19.60;64.10;;;;;;5076065;28;1205;-74
2022/05/22 10:51:40;;;;;;;;;;;19.50;64.00;;;;;;5074571;28;1066;-74
2022/05/22 10:54:06;;;;;;;;;;;19.60;64.10;;;;;;5074922;28;1353;-73
2022/05/22 10:56:32;;;;;;;;;;;19.50;64.10;;;;;;5071732;28;1298;-74
2022/05/22 10:58:59;;;;;;;;;;;19.50;64.00;;;;;;5072306;28;1181;-73
2022/05/22 11:01:25;;;;;;;;;;;19.60;64.90;;;;;;5075297;28;1396;-74
2022/05/22 11:04:05;;;;;;;;;;;19.60;64.10;;;;;;5074709;28;1909;-73
2022/05/22 11:06:31;;;;;;;;;;;19.50;64.10;;;;;;5054449;28;1262;-74
2022/05/22 11:08:56;;;;;;;;;;;19.50;64.10;;;;;;5061179;28;1341;-74
2022/05/22 11:11:26;;;;;;;;;;;19.60;64.10;;;;;;5074053;28;1101;-74
2022/05/22 11:13:51;;;;;;;;;;;19.60;64.10;;;;;;5075518;28;1308;-74
2022/05/22 11:16:18;;;;;;;;;;;19.60;64.10;;;;;;5091784;28;1345;-74
2022/05/22 11:18:44;;;;;;;;;;;19.50;64.10;;;;;;5092050;28;1205;-73
2022/05/22 11:21:28;;;;;;;;;;;19.50;64.10;;;;;;5075847;28;1047;-73
2022/05/22 11:24:12;;;;;;;;;;;19.50;64.10;;;;;;5063222;28;1906;-73
2022/05/22 11:26:44;;;;;;;;;;;19.50;64.10;;;;;;5075130;28;1086;-74
2022/05/22 11:29:20;;;;;;;;;;;19.50;64.10;;;;;;5074447;28;1039;-73
2022/05/22 11:31:56;;;;;;;;;;;19.50;64.10;;;;;;5060680;28;1114;-74
2022/05/22 11:34:37;;;;;;;;;;;19.60;64.20;;;;;;5071862;28;1817;-74
2022/05/22 11:37:06;;;;;;;;;;;19.50;64.10;;;;;;5074221;28;1118;-74
2022/05/22 11:39:46;;;;;;;;;;;19.50;64.10;;;;;;5070631;28;1220;-74
2022/05/22 11:42:24;;;;;;;;;;;19.50;64.10;;;;;;5063309;28;962;-74
2022/05/22 11:44:56;;;;;;;;;;;19.50;64.10;;;;;;5070227;28;2220;-73
2022/05/22 11:47:31;;;;;;;;;;;19.50;64.10;;;;;;5055313;28;1301;-72
2022/05/22 11:49:56;;;;;;;;;;;19.50;64.90;;;;;;5070571;28;1208;-73
2022/05/22 11:55:35;;;;;;;;;;;19.50;64.10;;;;;;5071769;28;1244;-73
2022/05/22 11:58:07;;;;;;;;;;;19.50;64.10;;;;;;5026353;28;1135;-73
2022/05/22 12:00:51;;;;;;;;;;;19.50;64.20;;;;;;5073406;28;1145;-73
2022/05/22 12:03:27;;;;;;;;;;;19.50;64.10;;;;;;5074885;28;1845;-73
2022/05/22 12:05:56;;;;;;;;;;;19.50;64.20;;;;;;5075127;28;934;-74
2022/05/22 12:08:25;;;;;;;;;;;19.50;64.20;;;;;;5073770;28;1354;-73
2022/05/22 12:10:53;;;;;;;;;;;19.50;64.20;;;;;;5073260;28;1113;-75
2022/05/22 12:13:22;;;;;;;;;;;19.50;64.20;;;;;;5073269;28;1288;-74
2022/05/22 12:15:49;;;;;;;;;;;19.50;64.20;;;;;;5073425;28;1097;-74
2022/05/22 12:18:20;;;;;;;;;;;19.50;64.90;;;;;;5054323;28;1277;-74
2022/05/22 12:20:47;;;;;;;;;;;19.50;64.20;;;;;;5072990;28;1289;-74
2022/05/22 12:23:16;;;;;;;;;;;19.50;64.20;;;;;;5056070;28;1323;-74
2022/05/22 12:25:43;;;;;;;;;;;19.50;64.20;;;;;;5074178;28;1902;-74
2022/05/22 12:28:23;;;;;;;;;;;19.50;64.20;;;;;;5071986;28;1179;-74
2022/05/22 12:30:49;;;;;;;;;;;19.50;64.20;;;;;;5065124;28;1066;-74
2022/05/22 12:33:14;;;;;;;;;;;19.50;64.20;;;;;;5072953;28;1382;-74
2022/05/22 12:35:40;;;;;;;;;;;19.50;64.20;;;;;;5072987;28;1116;-74
2022/05/22 12:38:09;;;;;;;;;;;19.50;64.20;;;;;;5072878;28;1153;-73
2022/05/22 12:40:38;;;;;;;;;;;19.50;64.20;;;;;;5074437;28;1129;-74
2022/05/22 12:43:04;;;;;;;;;;;19.50;64.20;;;;;;5055973;28;1290;-73
2022/05/22 12:45:29;;;;;;;;;;;19.50;64.20;;;;;;5055914;28;1906;-73
2022/05/22 12:47:55;;;;;;;;;;;19.50;64.20;;;;;;5071869;28;1138;-74
2022/05/22 12:50:34;;;;;;;;;;;19.50;64.20;;;;;;5072508;28;1074;-74
2022/05/22 12:52:59;;;;;;;;;;;19.50;64.20;;;;;;5059790;28;1149;-74
2022/05/22 12:55:34;;;;;;;;;;;19.50;64.20;;;;;;5075415;22;3728;-69
2022/05/22 12:58:00;;;;;;;;;;;19.50;64.30;;;;;;5053738;28;947;-68
2022/05/22 13:00:38;;;;;;;;;;;19.50;64.20;;;;;;5052218;28;1417;-68
2022/05/22 13:03:15;;;;;;;;;;;19.50;64.30;;;;;;5052358;28;1456;-69
2022/05/22 13:05:41;;;;;;;;;;;19.50;64.30;;;;;;5035542;28;1952;-69
2022/05/22 13:08:13;;;;;;;;;;;19.50;64.30;;;;;;5052088;28;1360;-68
2022/05/22 13:10:43;;;;;;;;;;;19.50;64.30;;;;;;5051974;28;1118;-69
2022/05/22 13:13:09;;;;;;;;;;;19.50;64.30;;;;;;5052392;28;1361;-69
2022/05/22 13:15:35;;;;;;;;;;;19.50;64.30;;;;;;5052222;28;1351;-69
2022/05/22 13:18:06;;;;;;;;;;;19.50;64.30;;;;;;5056172;28;1087;-69
2022/05/22 13:20:35;;;;;;;;;;;19.50;64.30;;;;;;5039057;28;1382;-68
2022/05/22 13:23:02;;;;;;;;;;;19.50;64.30;;;;;;5053636;28;1257;-69
2022/05/22 13:25:28;;;;;;;;;;;19.50;64.30;;;;;;5051959;28;1914;-68
2022/05/22 13:27:54;;;;;;;;;;;19.50;64.30;;;;;;5053362;28;1254;-68
2022/05/22 13:30:24;;;;;;;;;;;19.50;64.30;;;;;;5062352;28;1275;-68
2022/05/22 13:32:54;;;;;;;;;;;19.50;64.30;;;;;;5035220;28;1099;-69
2022/05/22 13:35:23;;;;;;;;;;;19.50;64.30;;;;;;5051690;28;1216;-69
2022/05/22 13:37:50;;;;;;;;;;;19.50;64.30;;;;;;5053062;28;1250;-69
2022/05/22 13:40:19;;;;;;;;;;;19.50;64.30;;;;;;5051648;28;1561;-69
2022/05/22 13:43:04;;;;;;;;;;;19.50;64.30;;;;;;5053121;28;1154;-68
2022/05/22 13:45:33;;;;;;;;;;;19.50;64.30;;;;;;5052506;28;1955;-69
2022/05/22 13:48:04;;;;;;;;;;;19.50;64.30;;;;;;5050572;28;1819;-69
2022/05/22 13:53:14;;;;;;;;;;;19.50;64.30;;;;;;5051885;28;1162;-69
2022/05/22 13:55:40;;;;;;;;;;;19.50;64.30;;;;;;5052739;28;1393;-69
2022/05/22 13:58:11;;;;;;;;;;;19.50;64.30;;;;;;5051141;28;1273;-68
2022/05/22 14:00:37;;;;;;;;;;;19.50;64.30;;;;;;5051308;28;1388;-68
2022/05/22 14:03:04;;;;;;;;;;;19.50;64.30;;;;;;5051737;28;1266;-67
2022/05/22 14:05:37;;;;;;;;;;;19.50;64.30;;;;;;5051359;28;1914;-68
2022/05/22 14:08:08;;;;;;;;;;;19.50;64.30;;;;;;5051506;28;1348;-69
2022/05/22 14:10:34;;;;;;;;;;;19.50;64.30;;;;;;5050906;28;1187;-69
2022/05/22 14:13:09;;;;;;;;;;;19.50;64.30;;;;;;5051518;28;1293;-69
2022/05/22 14:15:34;;;;;;;;;;;19.50;64.40;;;;;;5051657;28;1843;-71
2022/05/22 14:18:00;;;;;;;;;;;19.50;64.30;;;;;;5047348;28;1514;-68
2022/05/22 14:20:26;;;;;;;;;;;19.50;64.30;;;;;;5033618;28;1454;-69
2022/05/22 14:22:52;;;;;;;;;;;19.50;64.30;;;;;;5043618;28;1188;-68
2022/05/22 14:25:22;;;;;;;;;;;19.50;64.30;;;;;;5049604;28;1963;-68
2022/05/22 14:27:49;;;;;;;;;;;19.50;65.10;;;;;;5049867;28;1290;-68
2022/05/22 14:30:17;;;;;;;;;;;19.50;64.40;;;;;;5060117;28;1197;-68
2022/05/22 14:33:08;;;;;;;;;;;19.50;64.30;;;;;;5049602;28;1381;-68
2022/05/22 14:35:34;;;;;;;;;;;19.50;64.30;;;;;;5041058;28;1451;-68
2022/05/22 14:38:20;;;;;;;;;;;19.50;65.10;;;;;;5046523;28;1299;-69
2022/05/22 14:40:53;;;;;;;;;;;19.50;64.30;;;;;;5042071;28;1180;-69
2022/05/22 14:43:21;;;;;;;;;;;19.50;64.30;;;;;;5043173;28;1231;-68
2022/05/22 14:45:47;;;;;;;;;;;19.50;64.30;;;;;;5042646;28;1902;-68
2022/05/22 14:48:13;;;;;;;;;;;19.50;64.40;;;;;;5034306;28;1247;-68
2022/05/22 14:50:46;;;;;;;;;;;19.50;64.40;;;;;;5050903;28;1333;-68